createdAt,value
2023-12-15T00:00:27.173Z,53.20
2023-12-15T00:01:27.205Z,51.42
2023-12-15T00:02:27.337Z,51.74
2023-12-15T00:03:27.351Z,51.33
2023-12-15T00:04:27.391Z,52.79
2023-12-15T00:05:27.531Z,53.88
2023-12-15T00:06:27.590Z,52.38
2023-12-15T00:07:27.631Z,54.31
2023-12-15T00:08:27.706Z,53.89
2023-12-15T00:09:27.716Z,52.18
2023-12-15T00:10:27.774Z,54.72
2023-12-15T00:11:27.921Z,52.56
2023-12-15T00:12:27.894Z,52.38
2023-12-15T00:13:27.964Z,53.34
2023-12-15T00:14:28.039Z,54.32
2023-12-15T00:15:28.092Z,54.08
2023-12-15T00:16:28.170Z,52.80
2023-12-15T00:17:28.233Z,51.05
2023-12-15T00:18:28.329Z,51.57
2023-12-15T00:19:28.310Z,52.50
2023-12-15T00:20:28.398Z,54.30
2023-12-15T00:21:28.441Z,53.90
2023-12-15T00:22:28.530Z,53.30
2023-12-15T00:23:28.587Z,52.40
2023-12-15T00:24:28.627Z,51.15
2023-12-15T00:25:28.694Z,51.56
2023-12-15T00:26:28.817Z,52.27
2023-12-15T00:27:28.820Z,53.42
2023-12-15T00:28:28.868Z,53.15
2023-12-15T00:29:28.963Z,54.29
2023-12-15T00:30:29.003Z,51.26
2023-12-15T00:31:29.036Z,52.79
2023-12-15T00:32:29.197Z,53.15
2023-12-15T00:33:29.246Z,54.33
2023-12-15T00:34:29.227Z,53.20
2023-12-15T00:35:29.340Z,52.89
2023-12-15T00:36:29.346Z,54.24
2023-12-15T00:37:29.400Z,52.76
2023-12-15T00:38:29.457Z,52.72
2023-12-15T00:39:29.509Z,52.89
2023-12-15T00:40:29.582Z,52.75
2023-12-15T00:41:29.687Z,50.58
2023-12-15T00:42:29.673Z,51.18
2023-12-15T00:43:29.761Z,55.31
2023-12-15T00:44:29.905Z,52.62
2023-12-15T00:45:29.884Z,52.47
2023-12-15T00:46:29.938Z,54.41
2023-12-15T00:47:30.106Z,55.80
2023-12-15T00:48:30.177Z,53.09
2023-12-15T00:49:30.223Z,52.32
2023-12-15T00:50:30.359Z,52.91
2023-12-15T00:51:30.222Z,53.44
2023-12-15T00:52:30.293Z,52.91
2023-12-15T00:53:30.367Z,50.66
2023-12-15T00:54:30.408Z,52.46
2023-12-15T00:55:30.461Z,51.46
2023-12-15T00:56:30.631Z,52.62
2023-12-15T00:57:30.585Z,52.80
2023-12-15T00:58:30.627Z,51.46
2023-12-15T00:59:30.721Z,53.67
2023-12-15T01:00:30.776Z,53.03
2023-12-15T01:01:30.816Z,53.44
2023-12-15T01:02:30.913Z,53.11
2023-12-15T01:03:30.973Z,54.33
2023-12-15T01:04:31.027Z,52.59
2023-12-15T01:05:31.122Z,53.41
2023-12-15T01:06:31.139Z,52.12
2023-12-15T01:07:31.185Z,52.60
2023-12-15T01:08:31.317Z,52.97
2023-12-15T01:09:31.288Z,52.94
2023-12-15T01:10:31.371Z,53.40
2023-12-15T01:11:31.454Z,55.15
2023-12-15T01:12:31.482Z,53.33
2023-12-15T01:13:31.533Z,51.78
2023-12-15T01:14:31.623Z,51.77
2023-12-15T01:15:31.643Z,55.58
2023-12-15T01:16:31.689Z,51.90
2023-12-15T01:17:31.833Z,52.05
2023-12-15T01:18:31.871Z,51.30
2023-12-15T01:19:31.878Z,54.06
2023-12-15T01:20:31.925Z,54.11
2023-12-15T01:21:31.970Z,52.97
2023-12-15T01:22:32.014Z,50.96
2023-12-15T01:23:32.189Z,51.35
2023-12-15T01:24:32.140Z,52.74
2023-12-15T01:25:32.213Z,52.50
2023-12-15T01:26:32.291Z,53.92
2023-12-15T01:27:32.315Z,53.94
2023-12-15T01:28:32.363Z,53.70
2023-12-15T01:29:32.476Z,54.62
2023-12-15T01:30:32.500Z,53.70
2023-12-15T01:31:32.531Z,55.37
2023-12-15T01:32:32.730Z,53.06
2023-12-15T01:33:32.630Z,53.35
2023-12-15T01:34:32.681Z,54.65
2023-12-15T01:35:32.826Z,51.28
2023-12-15T01:36:32.814Z,51.31
2023-12-15T01:37:32.852Z,53.37
2023-12-15T01:38:32.923Z,54.64
2023-12-15T01:39:32.967Z,53.99
2023-12-15T01:40:33.023Z,53.38
2023-12-15T01:41:33.178Z,52.26
2023-12-15T01:42:33.126Z,51.18
2023-12-15T01:43:33.196Z,54.36
2023-12-15T01:44:33.316Z,53.90
2023-12-15T01:45:33.306Z,52.97
2023-12-15T01:46:33.364Z,52.77
2023-12-15T01:47:33.548Z,52.43
2023-12-15T01:48:33.549Z,53.61
2023-12-15T01:49:33.573Z,52.56
2023-12-15T01:50:33.664Z,52.06
2023-12-15T01:51:33.663Z,51.75
2023-12-15T01:52:33.727Z,54.70
2023-12-15T01:53:33.796Z,52.52
2023-12-15T01:54:33.821Z,53.21
2023-12-15T01:55:33.870Z,53.49
2023-12-15T01:56:33.952Z,54.52
2023-12-15T01:57:34.323Z,51.55
2023-12-15T01:58:34.059Z,52.91
2023-12-15T01:59:34.124Z,53.18
2023-12-15T02:00:34.222Z,54.06
2023-12-15T02:01:34.265Z,53.49
2023-12-15T02:02:34.308Z,51.62
2023-12-15T02:03:34.465Z,52.68
2023-12-15T02:04:34.398Z,53.37
2023-12-15T02:05:34.506Z,53.79
2023-12-15T02:06:34.488Z,53.12
2023-12-15T02:07:34.889Z,51.81
2023-12-15T02:08:34.630Z,55.30
2023-12-15T02:09:34.643Z,53.71
2023-12-15T02:10:34.690Z,53.51
2023-12-15T02:11:57.770Z,54.12
2023-12-15T02:12:34.990Z,54.48
2023-12-15T02:13:35.504Z,55.66
2023-12-15T02:14:34.780Z,55.97
2023-12-15T02:15:34.957Z,57.28
2023-12-15T02:16:34.747Z,56.62
2023-12-15T02:17:35.269Z,58.67
2023-12-15T02:18:35.056Z,57.06
2023-12-15T02:19:34.877Z,56.02
2023-12-15T02:20:34.950Z,56.60
2023-12-15T02:21:34.953Z,56.32
2023-12-15T02:22:35.028Z,56.91
2023-12-15T02:23:35.093Z,56.47
2023-12-15T02:24:35.148Z,52.08
2023-12-15T02:25:35.249Z,54.95
2023-12-15T02:26:35.279Z,54.49
2023-12-15T02:27:35.580Z,55.80
2023-12-15T02:28:35.370Z,55.89
2023-12-15T02:29:35.478Z,52.65
2023-12-15T02:30:35.526Z,55.63
2023-12-15T02:31:35.550Z,52.96
2023-12-15T02:32:35.807Z,56.07
2023-12-15T02:33:35.833Z,54.10
2023-12-15T02:34:35.840Z,50.50
2023-12-15T02:35:35.866Z,53.33
2023-12-15T02:36:35.866Z,53.07
2023-12-15T02:37:36.229Z,53.00
2023-12-15T02:38:35.977Z,53.62
2023-12-15T02:39:36.053Z,52.79
2023-12-15T02:40:36.116Z,50.18
2023-12-15T02:41:36.180Z,51.79
2023-12-15T02:42:36.273Z,53.54
2023-12-15T02:43:36.280Z,54.21
2023-12-15T02:44:36.387Z,54.52
2023-12-15T02:45:36.402Z,54.69
2023-12-15T02:46:36.470Z,52.02
2023-12-15T02:47:37.552Z,52.77
2023-12-15T02:48:36.714Z,53.60
2023-12-15T02:49:36.644Z,53.41
2023-12-15T02:50:36.732Z,54.89
2023-12-15T02:51:36.771Z,54.37
2023-12-15T02:52:36.809Z,55.15
2023-12-15T02:53:36.858Z,53.41
2023-12-15T02:54:36.920Z,55.56
2023-12-15T02:55:36.973Z,53.72
2023-12-15T02:56:37.018Z,54.12
2023-12-15T02:57:37.310Z,51.06
2023-12-15T02:58:37.214Z,51.72
2023-12-15T02:59:37.240Z,53.52
2023-12-15T03:00:37.303Z,52.58
2023-12-15T03:01:37.342Z,54.66
2023-12-15T03:02:37.403Z,54.30
2023-12-15T03:03:37.484Z,53.10
2023-12-15T03:04:37.490Z,53.67
2023-12-15T03:05:37.646Z,53.54
2023-12-15T03:06:37.626Z,53.78
2023-12-15T03:07:37.879Z,53.26
2023-12-15T03:08:37.710Z,53.37
2023-12-15T03:09:37.755Z,55.21
2023-12-15T03:10:37.801Z,55.64
2023-12-15T03:11:37.861Z,56.07
2023-12-15T03:12:37.935Z,53.01
2023-12-15T03:13:38.002Z,55.53
2023-12-15T03:14:38.025Z,52.12
2023-12-15T03:15:38.082Z,51.12
2023-12-15T03:16:38.141Z,52.87
2023-12-15T03:17:38.603Z,51.44
2023-12-15T03:18:38.256Z,50.67
2023-12-15T03:19:38.326Z,52.28
2023-12-15T03:20:38.391Z,52.67
2023-12-15T03:21:38.451Z,52.12
2023-12-15T03:22:38.486Z,51.89
2023-12-15T03:23:38.569Z,53.70
2023-12-15T03:24:38.618Z,52.83
2023-12-15T03:25:38.688Z,54.03
2023-12-15T03:26:38.773Z,53.23
2023-12-15T03:27:38.990Z,53.29
2023-12-15T03:28:38.858Z,53.66
2023-12-15T03:29:38.930Z,53.95
2023-12-15T03:30:38.965Z,52.97
2023-12-15T03:31:39.015Z,53.29
2023-12-15T03:32:39.124Z,54.84
2023-12-15T03:33:39.189Z,54.15
2023-12-15T03:34:39.164Z,51.49
2023-12-15T03:35:39.205Z,50.89
2023-12-15T03:36:39.272Z,53.08
2023-12-15T03:37:39.501Z,54.16
2023-12-15T03:38:39.382Z,51.62
2023-12-15T03:39:39.419Z,54.54
2023-12-15T03:40:39.489Z,53.49
2023-12-15T03:41:39.521Z,54.70
2023-12-15T03:42:39.578Z,53.51
2023-12-15T03:43:39.653Z,53.07
2023-12-15T03:44:39.687Z,54.08
2023-12-15T03:45:39.734Z,52.52
2023-12-15T03:46:39.796Z,51.25
2023-12-15T03:47:40.360Z,52.85
2023-12-15T03:48:39.988Z,52.94
2023-12-15T03:49:39.965Z,52.57
2023-12-15T03:50:40.036Z,53.28
2023-12-15T03:51:40.074Z,52.65
2023-12-15T03:52:40.168Z,52.87
2023-12-15T03:53:40.333Z,53.56
2023-12-15T03:54:40.267Z,55.81
2023-12-15T03:55:40.331Z,54.07
2023-12-15T03:56:40.390Z,54.20
2023-12-15T03:57:40.434Z,55.48
2023-12-15T03:58:40.494Z,52.72
2023-12-15T03:59:40.615Z,53.88
2023-12-15T04:00:40.628Z,53.12
2023-12-15T04:01:40.709Z,52.60
2023-12-15T04:02:40.773Z,51.16
2023-12-15T04:03:40.777Z,51.40
2023-12-15T04:04:40.879Z,51.37
2023-12-15T04:05:40.935Z,50.42
2023-12-15T04:06:40.972Z,51.83
2023-12-15T04:07:41.029Z,53.49
2023-12-15T04:08:41.107Z,52.72
2023-12-15T04:09:41.141Z,54.08
2023-12-15T04:10:41.201Z,53.99
2023-12-15T04:11:41.246Z,54.58
2023-12-15T04:12:41.321Z,52.20
2023-12-15T04:13:41.363Z,55.88
2023-12-15T04:14:41.497Z,54.41
2023-12-15T04:15:41.470Z,50.41
2023-12-15T04:16:41.508Z,53.76
2023-12-15T04:17:41.898Z,52.29
2023-12-15T04:18:41.749Z,52.58
2023-12-15T04:19:41.892Z,51.58
2023-12-15T04:20:41.778Z,54.45
2023-12-15T04:21:41.767Z,50.76
2023-12-15T04:22:41.830Z,52.79
2023-12-15T04:23:41.887Z,52.19
2023-12-15T04:24:41.927Z,51.81
2023-12-15T04:25:41.974Z,52.48
2023-12-15T04:26:42.017Z,52.44
2023-12-15T04:27:42.356Z,52.35
2023-12-15T04:28:42.110Z,54.35
2023-12-15T04:29:42.137Z,54.06
2023-12-15T04:30:42.226Z,52.52
2023-12-15T04:31:42.230Z,52.82
2023-12-15T04:32:42.337Z,51.90
2023-12-15T04:33:42.327Z,53.61
2023-12-15T04:34:42.375Z,51.92
2023-12-15T04:35:42.419Z,52.87
2023-12-15T04:36:42.461Z,51.83
2023-12-15T04:37:50.114Z,50.00
2023-12-15T04:38:50.115Z,50.00
2023-12-15T04:39:50.136Z,50.00
2023-12-15T04:40:50.101Z,50.00
2023-12-15T04:41:50.126Z,50.00
2023-12-15T04:42:50.117Z,53.44
2023-12-15T04:43:50.104Z,52.60
2023-12-15T04:44:50.126Z,50.00
2023-12-15T04:45:50.146Z,53.88
2023-12-15T04:46:50.113Z,54.76
2023-12-15T04:47:50.158Z,51.92
2023-12-15T04:48:50.214Z,51.67
2023-12-15T04:49:50.134Z,53.99
2023-12-15T04:50:50.131Z,50.78
2023-12-15T04:51:50.144Z,52.00
2023-12-15T04:52:50.165Z,52.66
2023-12-15T04:53:50.163Z,51.03
2023-12-15T04:54:50.149Z,50.07
2023-12-15T04:55:50.133Z,51.71
2023-12-15T04:56:50.143Z,52.53
2023-12-15T04:57:50.345Z,50.12
2023-12-15T04:58:50.132Z,51.00
2023-12-15T04:59:50.148Z,50.19
2023-12-15T05:00:50.206Z,53.00
2023-12-15T05:01:50.156Z,50.16
2023-12-15T05:02:50.139Z,50.72
2023-12-15T05:03:50.184Z,50.77
2023-12-15T05:04:50.169Z,50.41
2023-12-15T05:05:50.264Z,52.47
2023-12-15T05:06:50.164Z,51.36
2023-12-15T05:07:50.151Z,52.30
2023-12-15T05:08:50.169Z,52.44
2023-12-15T05:09:50.213Z,52.70
2023-12-15T05:10:51.596Z,52.95
2023-12-15T05:11:50.171Z,51.00
2023-12-15T05:12:50.169Z,53.23
2023-12-15T05:13:50.197Z,53.15
2023-12-15T05:14:50.167Z,53.92
2023-12-15T05:15:50.181Z,51.62
2023-12-15T05:16:50.193Z,51.39
2023-12-15T05:17:50.433Z,50.78
2023-12-15T05:18:50.245Z,52.02
2023-12-15T05:19:50.168Z,51.05
2023-12-15T05:20:50.176Z,51.68
2023-12-15T05:21:50.179Z,51.16
2023-12-15T05:22:50.185Z,51.91
2023-12-15T05:23:50.185Z,51.26
2023-12-15T05:24:50.176Z,52.42
2023-12-15T05:25:50.174Z,52.65
2023-12-15T05:26:50.188Z,52.87
2023-12-15T05:27:50.254Z,51.20
2023-12-15T05:28:50.284Z,53.54
2023-12-15T05:29:50.386Z,53.02
2023-12-15T05:30:50.356Z,50.85
2023-12-15T05:31:50.387Z,51.53
2023-12-15T05:32:50.517Z,52.72
2023-12-15T05:33:50.466Z,51.27
2023-12-15T05:34:50.453Z,51.26
2023-12-15T05:35:50.465Z,51.92
2023-12-15T05:36:50.509Z,52.59
2023-12-15T05:37:50.544Z,51.55
2023-12-15T05:38:50.565Z,52.52
2023-12-15T05:39:50.595Z,50.00
2023-12-15T05:40:50.622Z,55.16
2023-12-15T05:41:51.372Z,55.72
2023-12-15T05:42:50.708Z,50.71
2023-12-15T05:43:50.747Z,54.32
2023-12-15T05:44:50.829Z,51.36
2023-12-15T05:45:50.904Z,52.12
2023-12-15T05:46:50.859Z,54.30
2023-12-15T05:47:50.999Z,53.72
2023-12-15T05:48:51.049Z,52.10
2023-12-15T05:49:51.047Z,52.77
2023-12-15T05:50:50.995Z,50.96
2023-12-15T05:51:51.011Z,51.91
2023-12-15T05:52:51.047Z,53.56
2023-12-15T05:53:57.494Z,51.56
2023-12-15T05:54:52.077Z,51.65
2023-12-15T05:55:51.085Z,51.94
2023-12-15T05:56:51.093Z,52.12
2023-12-15T05:57:51.102Z,53.82
2023-12-15T05:58:51.097Z,52.89
2023-12-15T05:59:51.073Z,53.41
2023-12-15T06:00:51.098Z,52.73
2023-12-15T06:01:51.084Z,52.39
2023-12-15T06:02:51.107Z,52.02
2023-12-15T06:03:51.096Z,52.20
2023-12-15T06:04:51.092Z,50.62
2023-12-15T06:05:51.137Z,51.18
2023-12-15T06:06:51.094Z,54.30
2023-12-15T06:07:51.078Z,51.59
2023-12-15T06:08:51.085Z,52.25
2023-12-15T06:09:51.079Z,52.29
2023-12-15T06:10:51.127Z,52.32
2023-12-15T06:11:51.147Z,51.02
2023-12-15T06:12:51.157Z,51.01
2023-12-15T06:13:51.211Z,52.07
2023-12-15T06:14:51.240Z,52.10
2023-12-15T06:15:51.312Z,51.06
2023-12-15T06:16:51.894Z,51.74
2023-12-15T06:17:51.431Z,52.67
2023-12-15T06:18:51.452Z,52.17
2023-12-15T06:19:51.437Z,50.50
2023-12-15T06:20:51.495Z,52.27
2023-12-15T06:21:51.503Z,53.59
2023-12-15T06:22:53.916Z,51.87
2023-12-15T06:23:51.547Z,52.72
2023-12-15T06:24:51.585Z,54.03
2023-12-15T06:25:51.534Z,50.82
2023-12-15T06:26:51.541Z,52.72
2023-12-15T06:27:51.540Z,53.22
2023-12-15T06:28:51.617Z,52.15
2023-12-15T06:29:51.557Z,52.29
2023-12-15T06:30:51.628Z,56.32
2023-12-15T06:31:51.544Z,53.66
2023-12-15T06:32:51.625Z,52.29
2023-12-15T06:33:51.604Z,51.99
2023-12-15T06:34:51.634Z,54.14
2023-12-15T06:35:51.589Z,51.73
2023-12-15T06:36:51.576Z,53.03
2023-12-15T06:37:51.565Z,59.11
2023-12-15T06:38:51.568Z,57.27
2023-12-15T06:39:51.636Z,54.82
2023-12-15T06:40:51.559Z,56.25
2023-12-15T06:41:51.908Z,55.57
2023-12-15T06:42:51.565Z,58.64
2023-12-15T06:43:51.582Z,59.17
2023-12-15T06:44:51.599Z,59.02
2023-12-15T06:45:51.577Z,58.46
2023-12-15T06:46:51.649Z,60.08
2023-12-15T06:47:51.776Z,63.83
2023-12-15T06:48:51.656Z,64.22
2023-12-15T06:49:51.591Z,63.80
2023-12-15T06:50:51.604Z,67.98
2023-12-15T06:51:51.622Z,68.93
2023-12-15T06:52:51.612Z,69.02
2023-12-15T06:53:51.702Z,71.83
2023-12-15T06:54:51.595Z,73.54
2023-12-15T06:55:51.596Z,74.43
2023-12-15T06:56:51.658Z,74.28
2023-12-15T06:57:54.737Z,78.44
2023-12-15T06:58:51.653Z,81.70
2023-12-15T06:59:51.662Z,85.02
2023-12-15T07:00:51.804Z,84.54
2023-12-15T07:01:51.661Z,86.79
2023-12-15T07:02:51.683Z,86.28
2023-12-15T07:03:51.873Z,89.05
2023-12-15T07:04:51.669Z,90.09
2023-12-15T07:05:51.781Z,88.74
2023-12-15T07:06:51.649Z,89.17
2023-12-15T07:07:51.673Z,88.24
2023-12-15T07:08:51.753Z,89.99
2023-12-15T07:09:51.691Z,90.90
2023-12-15T07:10:51.648Z,94.94
2023-12-15T07:11:51.700Z,98.74
2023-12-15T07:12:51.643Z,103.02
2023-12-15T07:13:51.624Z,105.99
2023-12-15T07:14:51.659Z,107.30
2023-12-15T07:15:51.657Z,108.36
2023-12-15T07:16:51.626Z,110.21
2023-12-15T07:17:51.788Z,110.98
2023-12-15T07:18:51.730Z,109.45
2023-12-15T07:19:51.633Z,107.54
2023-12-15T07:20:51.648Z,110.27
2023-12-15T07:21:51.675Z,110.12
2023-12-15T07:22:51.637Z,110.61
2023-12-15T07:23:51.997Z,109.34
2023-12-15T07:24:51.639Z,107.36
2023-12-15T07:25:51.643Z,106.10
2023-12-15T07:26:51.704Z,105.54
2023-12-15T07:27:51.647Z,104.54
2023-12-15T07:28:51.659Z,104.45
2023-12-15T07:29:51.640Z,103.17
2023-12-15T07:30:51.765Z,101.62
2023-12-15T07:31:51.696Z,102.87
2023-12-15T07:32:51.786Z,101.57
2023-12-15T07:33:51.743Z,100.81
2023-12-15T07:34:51.652Z,98.29
2023-12-15T07:35:51.835Z,99.20
2023-12-15T07:36:51.657Z,96.16
2023-12-15T07:37:51.652Z,104.32
2023-12-15T07:38:51.670Z,107.26
2023-12-15T07:39:51.664Z,111.85
2023-12-15T07:40:51.668Z,110.65
2023-12-15T07:41:51.708Z,110.09
2023-12-15T07:42:51.668Z,108.77
2023-12-15T07:43:51.675Z,108.73
2023-12-15T07:44:51.661Z,108.99
2023-12-15T07:45:51.712Z,108.97
2023-12-15T07:46:51.678Z,109.49
2023-12-15T07:47:51.823Z,106.75
2023-12-15T07:48:51.795Z,108.66
2023-12-15T07:49:51.681Z,111.22
2023-12-15T07:50:51.753Z,111.01
2023-12-15T07:51:51.712Z,114.35
2023-12-15T07:52:51.684Z,114.67
2023-12-15T07:53:52.019Z,120.90
2023-12-15T07:54:51.698Z,124.56
2023-12-15T07:55:51.677Z,127.74
2023-12-15T07:56:51.724Z,127.53
2023-12-15T07:57:51.685Z,127.06
2023-12-15T07:58:51.941Z,128.71
2023-12-15T07:59:52.319Z,128.67
2023-12-15T08:00:51.731Z,125.70
2023-12-15T08:01:51.690Z,125.63
2023-12-15T08:02:51.734Z,123.71
2023-12-15T08:03:51.966Z,125.04
2023-12-15T08:04:54.462Z,124.87
2023-12-15T08:05:51.854Z,124.50
2023-12-15T08:06:51.816Z,123.17
2023-12-15T08:07:51.786Z,127.21
2023-12-15T08:08:51.807Z,129.66
2023-12-15T08:09:51.824Z,130.72
2023-12-15T08:10:51.795Z,126.90
2023-12-15T08:11:51.840Z,128.15
2023-12-15T08:12:51.825Z,130.40
2023-12-15T08:13:51.840Z,127.96
2023-12-15T08:14:51.818Z,127.79
2023-12-15T08:15:51.854Z,128.88
2023-12-15T08:16:51.822Z,129.48
2023-12-15T08:17:52.072Z,132.54
2023-12-15T08:18:52.013Z,133.09
2023-12-15T08:19:51.829Z,130.77
2023-12-15T08:20:51.837Z,134.91
2023-12-15T08:21:51.807Z,136.73
2023-12-15T08:22:51.834Z,136.97
2023-12-15T08:23:51.840Z,141.62
2023-12-15T08:24:51.814Z,139.56
2023-12-15T08:25:51.889Z,141.23
2023-12-15T08:26:51.814Z,138.03
2023-12-15T08:27:51.856Z,138.44
2023-12-15T08:28:51.828Z,136.67
2023-12-15T08:29:51.819Z,137.81
2023-12-15T08:30:51.899Z,135.12
2023-12-15T08:31:51.856Z,133.77
2023-12-15T08:32:51.937Z,134.29
2023-12-15T08:33:52.112Z,132.90
2023-12-15T08:34:51.823Z,131.55
2023-12-15T08:35:51.868Z,135.30
2023-12-15T08:36:51.881Z,136.15
2023-12-15T08:37:51.888Z,135.01
2023-12-15T08:38:51.970Z,134.92
2023-12-15T08:39:51.838Z,135.62
2023-12-15T08:40:51.864Z,135.23
2023-12-15T08:41:51.842Z,134.29
2023-12-15T08:42:52.474Z,134.47
2023-12-15T08:43:51.972Z,134.10
2023-12-15T08:44:51.875Z,133.34
2023-12-15T08:45:51.942Z,132.56
2023-12-15T08:46:51.910Z,133.12
2023-12-15T08:47:51.947Z,133.32
2023-12-15T08:48:52.124Z,132.55
2023-12-15T08:49:51.859Z,132.82
2023-12-15T08:50:51.892Z,132.07
2023-12-15T08:51:51.858Z,130.45
2023-12-15T08:52:51.900Z,130.25
2023-12-15T08:53:52.057Z,132.08
2023-12-15T08:54:51.896Z,132.52
2023-12-15T08:55:51.897Z,131.75
2023-12-15T08:56:52.037Z,129.96
2023-12-15T08:57:51.922Z,130.27
2023-12-15T08:58:51.914Z,131.04
2023-12-15T08:59:51.861Z,129.19
2023-12-15T09:00:51.864Z,128.45
2023-12-15T09:01:51.937Z,129.99
2023-12-15T09:02:52.014Z,129.04
2023-12-15T09:03:52.057Z,128.29
2023-12-15T09:04:59.630Z,128.16
2023-12-15T09:06:16.292Z,128.18
2023-12-15T09:06:53.422Z,128.32
2023-12-15T09:07:52.089Z,128.28
2023-12-15T09:08:52.082Z,128.81
2023-12-15T09:09:51.996Z,127.71
2023-12-15T09:10:52.071Z,129.41
2023-12-15T09:11:52.038Z,129.44
2023-12-15T09:12:51.993Z,126.37
2023-12-15T09:13:52.031Z,128.80
2023-12-15T09:14:52.005Z,127.24
2023-12-15T09:15:52.107Z,127.02
2023-12-15T09:16:51.998Z,126.31
2023-12-15T09:17:52.521Z,125.47
2023-12-15T09:18:52.096Z,127.43
2023-12-15T09:19:52.024Z,125.54
2023-12-15T09:20:52.032Z,125.53
2023-12-15T09:21:52.058Z,125.30
2023-12-15T09:22:52.029Z,124.69
2023-12-15T09:23:52.023Z,124.90
2023-12-15T09:24:52.021Z,123.83
2023-12-15T09:25:52.026Z,123.31
2023-12-15T09:26:52.089Z,121.09
2023-12-15T09:27:52.159Z,110.78
2023-12-15T09:28:52.540Z,96.85
2023-12-15T09:29:52.207Z,87.74
2023-12-15T09:30:52.271Z,79.38
2023-12-15T09:31:52.243Z,71.11
2023-12-15T09:32:55.189Z,64.93
2023-12-15T09:33:52.582Z,60.14
2023-12-15T09:34:52.311Z,54.84
2023-12-15T09:35:52.316Z,51.09
2023-12-15T09:36:52.316Z,50.20
2023-12-15T09:37:52.925Z,50.15
2023-12-15T09:38:52.308Z,51.46
2023-12-15T09:39:52.316Z,50.01
2023-12-15T09:40:52.324Z,50.81
2023-12-15T09:41:52.309Z,50.02
2023-12-15T09:42:52.377Z,51.68
2023-12-15T09:43:52.492Z,51.63
2023-12-15T09:45:00.998Z,50.00
2023-12-15T09:45:53.330Z,50.01
2023-12-15T09:46:52.460Z,45.54
2023-12-15T09:47:52.496Z,43.16
2023-12-15T09:48:52.625Z,42.11
2023-12-15T09:49:52.337Z,41.03
2023-12-15T09:50:52.457Z,53.14
2023-12-15T09:51:52.382Z,51.60
2023-12-15T09:52:52.342Z,51.73
2023-12-15T09:53:52.496Z,51.41
2023-12-15T09:54:52.368Z,50.81
2023-12-15T09:55:52.513Z,53.35
2023-12-15T09:56:52.509Z,50.65
2023-12-15T09:57:52.539Z,52.21
2023-12-15T09:58:52.619Z,52.61
2023-12-15T09:59:52.666Z,52.41
2023-12-15T10:00:52.732Z,54.42
2023-12-15T10:01:52.744Z,55.44
2023-12-15T10:02:52.857Z,54.93
2023-12-15T10:03:52.865Z,57.67
2023-12-15T10:04:52.910Z,57.59
2023-12-15T10:05:52.979Z,58.74
2023-12-15T10:06:53.019Z,60.25
2023-12-15T10:07:53.089Z,60.04
2023-12-15T10:09:01.305Z,61.53
2023-12-15T10:09:54.544Z,61.65
2023-12-15T10:10:53.311Z,61.85
2023-12-15T10:11:53.117Z,63.81
2023-12-15T10:12:53.108Z,64.79
2023-12-15T10:13:53.126Z,66.92
2023-12-15T10:14:53.160Z,68.14
2023-12-15T10:15:53.142Z,66.97
2023-12-15T10:16:53.120Z,69.66
2023-12-15T10:17:53.199Z,69.92
2023-12-15T10:18:53.202Z,72.62
2023-12-15T10:19:53.156Z,72.46
2023-12-15T10:20:53.574Z,75.04
2023-12-15T10:21:53.195Z,74.79
2023-12-15T10:22:53.298Z,75.17
2023-12-15T10:23:53.314Z,78.21
2023-12-15T10:24:53.403Z,77.62
2023-12-15T10:25:53.370Z,80.29
2023-12-15T10:26:53.411Z,80.04
2023-12-15T10:27:53.470Z,81.95
2023-12-15T10:28:53.556Z,86.23
2023-12-15T10:29:54.090Z,86.25
2023-12-15T10:30:53.701Z,87.83
2023-12-15T10:31:53.654Z,88.51
2023-12-15T10:32:53.772Z,89.12
2023-12-15T10:33:54.101Z,93.58
2023-12-15T10:34:53.721Z,93.12
2023-12-15T10:35:53.764Z,94.31
2023-12-15T10:36:53.861Z,96.75
2023-12-15T10:37:53.812Z,100.27
2023-12-15T10:38:53.947Z,102.50
2023-12-15T10:39:53.874Z,102.38
2023-12-15T10:40:53.915Z,103.64
2023-12-15T10:41:53.945Z,107.56
2023-12-15T10:42:53.960Z,104.91
2023-12-15T10:43:53.990Z,106.82
2023-12-15T10:44:54.013Z,109.05
2023-12-15T10:45:54.021Z,106.54
2023-12-15T10:46:54.046Z,107.54
2023-12-15T10:47:54.354Z,110.27
2023-12-15T10:48:54.169Z,109.71
2023-12-15T10:49:54.164Z,111.31
2023-12-15T10:50:54.159Z,110.97
2023-12-15T10:51:54.205Z,111.75
2023-12-15T10:52:54.227Z,111.46
2023-12-15T10:53:54.267Z,113.66
2023-12-15T10:54:54.337Z,113.72
2023-12-15T10:55:54.412Z,114.15
2023-12-15T10:56:54.373Z,114.39
2023-12-15T10:57:54.441Z,111.83
2023-12-15T10:58:54.476Z,111.47
2023-12-15T10:59:54.544Z,113.53
2023-12-15T11:00:54.728Z,114.33
2023-12-15T11:01:54.747Z,112.56
2023-12-15T11:02:54.969Z,113.83
2023-12-15T11:03:54.766Z,113.19
2023-12-15T11:04:54.846Z,114.44
2023-12-15T11:05:55.014Z,113.24
2023-12-15T11:06:54.994Z,114.71
2023-12-15T11:07:55.069Z,111.62
2023-12-15T11:08:55.103Z,112.53
2023-12-15T11:09:55.149Z,109.96
2023-12-15T11:10:55.260Z,109.03
2023-12-15T11:11:55.306Z,110.31
2023-12-15T11:12:55.326Z,109.82
2023-12-15T11:13:55.393Z,110.50
2023-12-15T11:14:55.426Z,110.57
2023-12-15T11:15:55.451Z,109.74
2023-12-15T11:16:55.535Z,109.43
2023-12-15T11:17:55.809Z,108.52
2023-12-15T11:18:55.817Z,108.46
2023-12-15T11:19:55.653Z,107.74
2023-12-15T11:20:55.705Z,108.85
2023-12-15T11:21:55.776Z,108.21
2023-12-15T11:22:55.814Z,108.89
2023-12-15T11:23:56.121Z,108.75
2023-12-15T11:24:55.882Z,106.83
2023-12-15T11:25:55.925Z,107.67
2023-12-15T11:26:55.937Z,108.77
2023-12-15T11:27:55.942Z,106.94
2023-12-15T11:28:56.069Z,109.34
2023-12-15T11:29:55.979Z,107.80
2023-12-15T11:30:56.505Z,112.16
2023-12-15T11:31:56.077Z,110.50
2023-12-15T11:32:56.811Z,112.22
2023-12-15T11:33:56.224Z,111.48
2023-12-15T11:34:56.221Z,115.16
2023-12-15T11:35:56.298Z,118.67
2023-12-15T11:36:56.367Z,116.67
2023-12-15T11:37:56.557Z,119.09
2023-12-15T11:38:56.474Z,120.99
2023-12-15T11:39:56.555Z,122.42
2023-12-15T11:40:56.571Z,124.25
2023-12-15T11:41:56.639Z,125.63
2023-12-15T11:42:57.067Z,126.87
2023-12-15T11:43:56.726Z,130.24
2023-12-15T11:44:56.795Z,131.68
2023-12-15T11:45:56.807Z,134.35
2023-12-15T11:46:56.869Z,135.86
2023-12-15T11:47:57.226Z,137.95
2023-12-15T11:48:57.024Z,116.11
2023-12-15T11:49:57.021Z,117.85
2023-12-15T11:50:57.068Z,128.93
2023-12-15T11:51:57.140Z,123.90
2023-12-15T11:52:57.630Z,120.71
2023-12-15T11:53:57.568Z,116.31
2023-12-15T11:54:57.296Z,115.64
2023-12-15T11:55:57.397Z,115.66
2023-12-15T11:56:57.405Z,113.23
2023-12-15T11:57:57.466Z,110.53
2023-12-15T11:58:57.527Z,110.07
2023-12-15T11:59:57.587Z,109.40
2023-12-15T12:00:57.713Z,109.60
2023-12-15T12:01:57.684Z,110.50
2023-12-15T12:02:57.730Z,113.58
2023-12-15T12:03:57.799Z,113.63
2023-12-15T12:04:57.839Z,112.06
2023-12-15T12:05:58.039Z,114.66
2023-12-15T12:06:58.042Z,115.92
2023-12-15T12:07:57.965Z,116.45
2023-12-15T12:08:58.006Z,117.38
2023-12-15T12:09:58.036Z,116.77
2023-12-15T12:10:58.069Z,117.99
2023-12-15T12:11:58.102Z,120.74
2023-12-15T12:12:58.105Z,124.94
2023-12-15T12:13:58.158Z,126.73
2023-12-15T12:14:58.176Z,127.37
2023-12-15T12:15:58.214Z,126.19
2023-12-15T12:16:58.264Z,127.48
2023-12-15T12:17:58.356Z,126.46
2023-12-15T12:18:58.473Z,127.92
2023-12-15T12:20:00.732Z,127.80
2023-12-15T12:20:58.641Z,126.45
2023-12-15T12:21:58.625Z,126.73
2023-12-15T12:22:58.665Z,127.71
2023-12-15T12:23:59.126Z,126.04
2023-12-15T12:24:58.876Z,126.90
2023-12-15T12:25:58.839Z,127.82
2023-12-15T12:26:58.907Z,126.77
2023-12-15T12:27:58.975Z,127.12
2023-12-15T12:29:01.750Z,128.84
2023-12-15T12:29:59.040Z,128.89
2023-12-15T12:30:59.057Z,127.28
2023-12-15T12:31:59.026Z,126.82
2023-12-15T12:32:59.103Z,128.50
2023-12-15T12:33:59.175Z,127.55
2023-12-15T12:34:59.028Z,128.84
2023-12-15T12:35:59.053Z,128.63
2023-12-15T12:36:59.027Z,128.50
2023-12-15T12:37:59.043Z,129.57
2023-12-15T12:38:59.098Z,128.62
2023-12-15T12:39:59.065Z,127.35
2023-12-15T12:40:59.040Z,126.82
2023-12-15T12:41:59.060Z,125.66
2023-12-15T12:42:59.068Z,127.53
2023-12-15T12:43:59.689Z,129.64
2023-12-15T12:44:59.080Z,128.15